Scroll down
FLIGHT INFORMATION
KLM Royal Dutch Airlines

KLM1205

At Arrival Gate

EHAM
 EKCH
DATE: 2019-12-05
GATE: C9
GATE DEPARTURE: 19:19
TAKEOFF: 19:31
DATE: 2019-12-05
GATE:  -
LANDING: 20:36
GATE ARRIVAL: 20:40
FLIGHT DATA
Crew: 
Speed: 
870 kph
Altitude: 
35,017 ft
Stage Length: 
633.4 km
Block Time: 
1.3 hrs
Flight Time: 
1.1 hrs
Fuel Used: 
3,487 kg
Cleared Route: 
TRACK DATA
50,000 ft 1,000 kts
AIRCRAFT INFO AND CUMULATIVE STATS
Aircraft Type: 
B739
Registration: 
SELCAL: 
MSN/LN: 
29600 / 924
Total Flights: 
1
Total Block Time: 
1.3 hrs
Total Flight Time: 
1.1 hrs
Total Fuel Used: 
3,487 kg
DATALINK LOG | Newest first | Current as of: 2022-10-05 22:53:15
LABEL SEQUENCE CONTENT Dn/Up
QD413120:40 7.6▼ Dn
QC361620:36▼ Dn
2U4658EKCH 052120Z 22019KT 9999 SCT014 BKN020 06/04 Q1006 NOSIG▲ Up
2S4658EKCH▼ Dn
QB312019:31▼ Dn
QA190819:19 15.4▼ Dn
2S1200EHAM▼ Dn
2S1145EHAM▼ Dn
A35435CLEARED TO EKCH VIA ANDI2E ANDIK N873 JUIST UP729 DHE P999 ALS T153 TUDLO TUDL2C. SQUAWK 3405.▲ Up
B30722EHAM EKCH KLM1205 G ▼ Dn
Q05224[LINK ACK]▲ Up
Q00652[LINK TEST]▼ Dn


AIRCRAFT HISTORY
FLIGHT DATE FLIGHT NO. ORIGIN DESTINATION CLEARED ROUTE BLOCK TIME FLIGHT TIME FUEL USED PILOT
2019-12-05KLM1205EHAM EKCH 1.3 hrs1.1 hrs7,687 lbMatthew Gales